« 趣味的航空路誌改訂情報 2015/12/10 thu | トップページ | 定点 富山空港 2015/12/11 fri »

2015/12/10

暴風警報 宮崎への道 2015/12/4 fri

本年最後の長距離遠征。空自の部隊再配置でいなくなる部隊を廻っているが、長らくいけてなかった新田原基地へ向かう計画を立てたのは夏のことだった。

20151204_ggg_00kanazawa

? 貧乏旅行なもんで、富山から高速バスで金沢へ・・ なんか雰囲気が?

20151204_ggg_01kanazawa

改札に基地外周でよく見るような光景・・

20151204_ggg_02kanazawa

みどりの窓口は、長蛇の列が出来ていた。

20151204_ggg_03kanazawa

なぬー!! たしかに昨晩は雷様が大暴れで、暴風警報が出ているとは知っていたのだが・・・

20151204_ggg_04kanazawa

大阪方面は、普通列車が松任止まり。ひゃー、手取川が渡れんのか・・

20151204_ggg_05kanazawa

ねえ、ひゃくまんさん どうする?

RJNK 040000Z 25031G47KT 9999 -SHRA FEW008 BKN015CB BKN025 08/00 Q1010

小松でガスト47knot

20151204_ggg_06c58140

陸蒸気・・ ではなくって、高速バスを手配して、とりあえずは大阪に向かえそう

20151204_ggg_07kanazawa

バス時間まで、金沢駅をぶらぶらしてたら、ちびっ子便器のトイレ発見。

20151204_ggg_08kanazawa

運転再開の目途は、たたず・・・

20151204_ggg_09kanazawa

仕方がないので・・・ テツする。改札内は、お客さんがいない・・

20151204_ggg_10hanayomenoren

富山、七尾方面は一応、運転されています。

20151204_ggg_11hanayomenoren

丁度、特急「花嫁のれん」の時間だそうで・・

20151204_ggg_12hanayomenoren

階段を上って、ホームに向かってみます。

20151204_ggg_13notokagaribi

七尾線からの特急「能登かがり火」は、普通に到着。

20151204_ggg_14hanayomenoren

しばらくすると、キハ48系の特急気動車「花嫁のれん」号入線

20151204_ggg_15hanayomenoren

ホームは、下り方面折り返しの4番線。花嫁のれん用にデコってあります。

20151204_ggg_16hanayomenoren

これが・・ 七尾で有名な花嫁のれん どす。

20151204_ggg_17kh484

車両外面だけ、さっと撮影 なかなか美しいですね。

20151204_ggg_18kh484

きらびやかな金髪・・ じゃなくって金箔がゴージャス

20151204_ggg_19kh481004

下り方は、キハ48-4 後ろはキハ48-1004

20151204_ggg_20kanazawa

バスの時間が近づいて・・ 金沢来るなら、風の穏やかな日がいいと思います。

20151204_ggg_21hrbus

金沢は観光ポイントが点在しているので、観光用バス路線を多く設けています。

20151204_ggg_22jrbus

はい最後の頼みとした西日本JRバスの「北陸道青春昼特急大阪2号」 こんなとこで、青春に絡まれた・・ 福井駅に寄る時間のかかる4列席車 青春や

20151204_ggg_23ja812p

多少遅れで京都着。JRに乗り換え新今宮で、南海乗り換え。関空急行で、なんとか桃便に間に合いました。ここらになると、写真を撮っている余裕など無し。

RJBB 040900Z 29022KT 9999 -SHRA FEW025 BKN045 11/M01 Q1017 TEMPO 28020G30KT

関空もかなりの強風かな

20151204_ggg_24miyazaki

で、到着したのは、宮崎ブーゲンビリア空港。夕方の便でなんとか救われました。で、なければ、遠征中止となったかも。

RJFM 041000Z 28009KT 9999 FEW030 10/04 Q1022

|

« 趣味的航空路誌改訂情報 2015/12/10 thu | トップページ | 定点 富山空港 2015/12/11 fri »

てつ」カテゴリの記事

おか」カテゴリの記事

コメント

コメントを書く



(ウェブ上には掲載しません)


コメントは記事投稿者が公開するまで表示されません。



トラックバック


この記事へのトラックバック一覧です: 暴風警報 宮崎への道 2015/12/4 fri:

« 趣味的航空路誌改訂情報 2015/12/10 thu | トップページ | 定点 富山空港 2015/12/11 fri »